Time;durP1;ratioP1;P1;durP2;ratioP2;P2;SDS_P1;SDS_P2;PMS_P1;PMS_P2;Temp;Humidity;BMP_temperature;BMP_pressure;BME280_temperature;BME280_humidity;BME280_pressure;Samples;Min_cycle;Max_cycle;Signal;HPM_P1;HPM_P2
2021/11/27 00:00:41;;;;;;;3.45;1.45;;;;;;;2.63;100.00;98467.25;5005009;28;20618;-68
2021/11/27 00:03:10;;;;;;;3.28;1.40;;;;;;;2.66;100.00;98468.91;5008946;28;20050;-68
2021/11/27 00:05:39;;;;;;;2.45;1.20;;;;;;;2.65;100.00;98467.19;5005202;28;20065;-68
2021/11/27 00:08:11;;;;;;;4.18;1.60;;;;;;;2.65;100.00;98457.50;5007232;28;20641;-68
2021/11/27 00:10:41;;;;;;;4.53;1.73;;;;;;;2.66;100.00;98458.38;5006806;28;20068;-68
2021/11/27 00:13:11;;;;;;;4.63;2.15;;;;;;;2.66;100.00;98453.13;5009066;28;20041;-68
2021/11/27 00:15:40;;;;;;;5.43;1.52;;;;;;;2.67;100.00;98466.19;5004576;28;20094;-68
2021/11/27 00:18:09;;;;;;;2.67;1.52;;;;;;;2.71;100.00;98459.91;5004564;28;20054;-68
2021/11/27 00:20:42;;;;;;;4.22;1.42;;;;;;;2.75;100.00;98458.03;5009686;28;20145;-68
2021/11/27 00:23:11;;;;;;;5.47;1.60;;;;;;;2.70;100.00;98452.91;5009112;28;20049;-68
2021/11/27 00:25:40;;;;;;;6.70;1.75;;;;;;;2.66;100.00;98453.97;5003251;28;20317;-68
2021/11/27 00:28:09;;;;;;;4.43;1.67;;;;;;;2.65;100.00;98454.03;5010038;28;20057;-68
2021/11/27 00:30:42;;;;;;;3.53;1.75;;;;;;;2.65;100.00;98444.34;5004106;28;20296;-68
2021/11/27 00:33:11;;;;;;;9.40;1.90;;;;;;;2.64;100.00;98457.56;5006552;28;20052;-68
2021/11/27 00:35:39;;;;;;;4.25;1.70;;;;;;;2.65;100.00;98452.22;5004926;28;20131;-69
2021/11/27 00:38:08;;;;;;;2.25;1.52;;;;;;;2.63;100.00;98447.97;5006903;28;20053;-68
2021/11/27 00:40:39;;;;;;;4.15;1.67;;;;;;;2.64;100.00;98442.63;5004148;28;20046;-69
2021/11/27 00:43:09;;;;;;;3.10;1.65;;;;;;;2.61;100.00;98440.97;5006743;28;20050;-68
2021/11/27 00:45:40;;;;;;;3.63;1.70;;;;;;;2.60;100.00;98444.50;5005725;28;20078;-71
2021/11/27 00:48:11;;;;;;;4.10;1.63;;;;;;;2.60;100.00;98444.50;5002611;28;20041;-68
2021/11/27 00:50:44;;;;;;;5.82;2.60;;;;;;;2.60;100.00;98441.88;5004608;28;20486;-68
2021/11/27 00:53:12;;;;;;;5.93;1.55;;;;;;;2.60;100.00;98447.13;5007362;28;20509;-68
2021/11/27 00:55:45;;;;;;;1.90;1.30;;;;;;;2.57;100.00;98442.00;5001644;28;20065;-69
2021/11/27 00:58:14;;;;;;;4.35;1.80;;;;;;;2.58;100.00;98442.84;5005857;28;20058;-69
2021/11/27 01:00:47;;;;;;;4.55;1.80;;;;;;;2.56;100.00;98447.31;5007306;28;21571;-68
2021/11/27 01:03:18;;;;;;;5.28;1.67;;;;;;;2.56;100.00;98445.53;5004510;28;20813;-69
2021/11/27 01:05:49;;;;;;;2.22;1.33;;;;;;;2.57;100.00;98438.50;5008677;28;20156;-68
2021/11/27 01:08:18;;;;;;;2.65;1.38;;;;;;;2.55;100.00;98453.50;4998794;28;20045;-68
2021/11/27 01:10:49;;;;;;;5.03;1.60;;;;;;;2.53;100.00;98445.66;5006023;28;20399;-68
2021/11/27 01:13:19;;;;;;;5.05;1.40;;;;;;;2.51;100.00;98441.38;5033666;28;20045;-68
2021/11/27 01:15:50;;;;;;;4.03;1.60;;;;;;;2.49;100.00;98441.44;5006137;28;20119;-68
2021/11/27 01:18:19;;;;;;;3.20;1.38;;;;;;;2.50;100.00;98440.50;5002319;28;20148;-68
2021/11/27 01:20:53;;;;;;;3.80;1.30;;;;;;;2.49;100.00;98437.94;5002471;28;20061;-68
2021/11/27 01:23:24;;;;;;;3.33;1.45;;;;;;;2.47;100.00;98435.38;5006590;28;20050;-68
2021/11/27 01:25:53;;;;;;;3.40;1.35;;;;;;;2.45;100.00;98442.44;5000962;28;20064;-68
2021/11/27 01:28:23;;;;;;;3.92;1.40;;;;;;;2.49;100.00;98443.22;4992942;28;20609;-69
2021/11/27 01:31:02;;;;;;;3.50;1.38;;;;;;;2.49;100.00;98448.47;5006034;28;20037;-68
2021/11/27 01:33:32;;;;;;;3.88;1.45;;;;;;;2.47;100.00;98450.28;5001386;28;20673;-69
2021/11/27 01:36:05;;;;;;;1.23;1.13;;;;;;;2.47;100.00;98458.19;5006051;28;20058;-68
2021/11/27 01:38:35;;;;;;;2.85;1.40;;;;;;;2.43;100.00;98458.31;5031922;28;20045;-68
2021/11/27 01:41:04;;;;;;;2.10;1.20;;;;;;;2.45;100.00;98465.28;5007913;28;20180;-68
2021/11/27 01:43:35;;;;;;;3.10;1.02;;;;;;;2.43;100.00;98460.06;5005265;28;20053;-68
2021/11/27 01:46:08;;;;;;;1.70;1.05;;;;;;;2.41;100.00;98464.53;5005037;28;20609;-69
2021/11/27 01:48:39;;;;;;;2.55;1.10;;;;;;;2.41;100.00;98469.81;5005115;28;20042;-68
2021/11/27 01:51:10;;;;;;;3.50;1.17;;;;;;;2.39;100.00;98467.22;5005613;28;20137;-68
2021/11/27 01:53:42;;;;;;;0.95;0.95;;;;;;;2.39;100.00;98476.91;5004517;28;20072;-69
2021/11/27 01:56:16;;;;;;;2.80;1.30;;;;;;;2.39;100.00;98484.81;5003571;28;20057;-68
2021/11/27 01:58:47;;;;;;;4.40;1.52;;;;;;;2.36;100.00;98482.28;5004077;28;20148;-69
2021/11/27 02:01:21;;;;;;;1.35;1.25;;;;;;;2.35;100.00;98491.06;5003172;28;20169;-69
2021/11/27 02:03:52;;;;;;;3.00;1.70;;;;;;;2.34;100.00;98482.31;5010245;28;20070;-68
2021/11/27 02:06:22;;;;;;;3.08;1.70;;;;;;;2.32;100.00;98489.44;5003246;28;20502;-68
2021/11/27 02:08:57;;;;;;;4.97;1.42;;;;;;;2.31;100.00;98492.97;5006677;28;20601;-68
2021/11/27 02:11:31;;;;;;;4.18;1.63;;;;;;;2.32;100.00;98496.47;5002045;28;20053;-68
2021/11/27 02:14:00;;;;;;;2.42;1.45;;;;;;;2.32;100.00;98497.31;5008182;28;20057;-68
2021/11/27 02:16:31;;;;;;;3.70;1.35;;;;;;;2.32;100.00;98502.59;5000468;28;20111;-70
2021/11/27 02:18:59;;;;;;;4.57;1.73;;;;;;;2.31;100.00;98492.97;5006004;28;20105;-68
2021/11/27 02:21:32;;;;;;;2.00;1.45;;;;;;;2.33;100.00;98503.44;4998552;28;20494;-68
2021/11/27 02:24:01;;;;;;;4.33;2.10;;;;;;;2.35;100.00;98498.97;5006028;28;20060;-70
2021/11/27 02:26:37;;;;;;;3.63;1.40;;;;;;;2.35;100.00;98505.13;5002971;28;20490;-69
2021/11/27 02:29:10;;;;;;;4.88;1.58;;;;;;;2.36;100.00;98501.53;5002508;28;20133;-67
2021/11/27 02:31:40;;;;;;;2.25;1.48;;;;;;;2.39;100.00;98501.44;5006381;28;20654;-67
2021/11/27 02:34:08;;;;;;;2.85;1.77;;;;;;;2.38;100.00;98499.75;5001790;28;20138;-73
2021/11/27 02:36:41;;;;;;;2.05;1.40;;;;;;;2.38;100.00;98498.88;5003586;28;20056;-73
2021/11/27 02:39:11;;;;;;;1.95;1.50;;;;;;;2.36;100.00;98493.66;5002024;28;20512;-73
2021/11/27 02:41:40;;;;;;;1.67;1.50;;;;;;;2.32;100.00;98494.69;5007788;28;20058;-73
2021/11/27 02:44:09;;;;;;;4.70;1.50;;;;;;;2.32;100.00;98497.31;4997198;28;20057;-73
2021/11/27 02:46:39;;;;;;;2.33;1.50;;;;;;;2.29;100.00;98483.41;5005276;28;20042;-73
2021/11/27 02:49:09;;;;;;;2.28;1.27;;;;;;;2.29;100.00;98480.78;5001585;28;20099;-73
2021/11/27 02:51:38;;;;;;;2.42;1.45;;;;;;;2.30;100.00;98493.00;5008138;28;20132;-74
2021/11/27 02:54:09;;;;;;;2.80;1.40;;;;;;;2.26;100.00;98497.53;5002451;28;20046;-73
2021/11/27 02:56:38;;;;;;;4.80;1.73;;;;;;;2.24;100.00;98492.31;5003061;28;20057;-74
2021/11/27 02:59:11;;;;;;;7.18;1.77;;;;;;;2.26;100.00;98499.31;5004068;28;20049;-73
2021/11/27 03:01:40;;;;;;;6.57;1.60;;;;;;;2.26;100.00;98499.31;5001909;28;20057;-73
2021/11/27 03:04:12;;;;;;;4.38;2.00;;;;;;;2.26;100.00;98499.31;5005070;28;20053;-67
2021/11/27 03:06:43;;;;;;;6.15;2.00;;;;;;;2.23;100.00;98498.50;5004922;28;20057;-73
2021/11/27 03:09:17;;;;;;;5.97;2.17;;;;;;;2.23;100.00;98492.38;5004840;28;20129;-68
2021/11/27 03:11:49;;;;;;;4.43;1.92;;;;;;;2.21;100.00;98500.34;5004039;28;20057;-68
2021/11/27 03:14:18;;;;;;;2.60;1.73;;;;;;;2.18;100.00;98503.06;5000920;28;20055;-73
2021/11/27 03:16:46;;;;;;;4.30;2.05;;;;;;;2.19;100.00;98511.81;5001088;28;20049;-73
2021/11/27 03:19:30;;;;;;;3.03;1.70;;;;;;;2.19;100.00;98510.03;5003866;28;20132;-70
2021/11/27 03:22:00;;;;;;;4.80;2.03;;;;;;;2.18;100.00;98505.72;5004489;28;20380;-69
2021/11/27 03:24:29;;;;;;;5.22;2.30;;;;;;;2.19;100.00;98510.03;5006650;28;20122;-69
2021/11/27 03:26:58;;;;;;;7.80;2.28;;;;;;;2.19;100.00;98515.31;5005721;28;20114;-69
2021/11/27 03:29:27;;;;;;;5.55;2.30;;;;;;;2.19;100.00;98522.34;4999590;28;20099;-67
2021/11/27 03:31:59;;;;;;;5.13;2.10;;;;;;;2.16;100.00;98515.44;5005863;28;20060;-69
2021/11/27 03:34:28;;;;;;;6.47;2.22;;;;;;;2.16;100.00;98509.28;5003628;28;20313;-70
2021/11/27 03:36:59;;;;;;;3.30;2.40;;;;;;;2.21;100.00;98513.50;5002042;28;20505;-69
2021/11/27 03:39:28;;;;;;;7.38;2.42;;;;;;;2.25;100.00;98519.50;5007820;28;20064;-69
2021/11/27 03:42:00;;;;;;;4.88;2.45;;;;;;;2.26;100.00;98526.47;5004452;28;20064;-70
2021/11/27 03:44:28;;;;;;;5.75;3.13;;;;;;;2.30;100.00;98519.34;5019521;28;20304;-67
2021/11/27 03:46:59;;;;;;;6.13;2.88;;;;;;;2.29;100.00;98529.00;5010893;28;20053;-69
2021/11/27 03:49:29;;;;;;;7.07;2.88;;;;;;;2.33;100.00;98535.00;5006722;28;20091;-70
2021/11/27 03:51:57;;;;;;;7.72;3.10;;;;;;;2.32;100.00;98535.94;5040554;28;20516;-70
2021/11/27 03:54:27;;;;;;;6.13;2.92;;;;;;;2.28;100.00;98539.59;5002497;28;20049;-67
2021/11/27 03:56:56;;;;;;;8.48;3.60;;;;;;;2.24;100.00;98536.19;5012818;28;20057;-69
2021/11/27 03:59:26;;;;;;;8.35;3.85;;;;;;;2.22;100.00;98535.41;5002950;28;20050;-69
2021/11/27 04:01:55;;;;;;;7.47;3.30;;;;;;;2.26;100.00;98537.00;5002147;28;20077;-69
2021/11/27 04:04:23;;;;;;;10.50;3.67;;;;;;;2.19;100.00;98536.34;5007410;28;20073;-69
2021/11/27 04:06:56;;;;;;;7.80;3.33;;;;;;;2.15;100.00;98547.06;5001779;28;20486;-70
2021/11/27 04:09:24;;;;;;;7.65;3.60;;;;;;;2.15;100.00;98550.53;5005767;28;20049;-67
2021/11/27 04:11:53;;;;;;;6.18;3.35;;;;;;;2.11;100.00;98551.56;5004444;28;20137;-67
2021/11/27 04:14:22;;;;;;;8.45;3.65;;;;;;;2.06;100.00;98550.88;5009766;28;20053;-70
2021/11/27 04:16:50;;;;;;;7.05;3.92;;;;;;;2.03;100.00;98554.44;5002815;28;20453;-67
2021/11/27 04:19:18;;;;;;;6.35;3.45;;;;;;;2.02;100.00;98562.38;5003727;28;21466;-67
2021/11/27 04:21:46;;;;;;;8.32;3.70;;;;;;;2.02;100.00;98568.50;5004017;28;20525;-67
2021/11/27 04:24:14;;;;;;;7.55;3.70;;;;;;;2.04;100.00;98563.19;4999132;28;20136;-67
2021/11/27 04:26:42;;;;;;;10.65;3.67;;;;;;;2.05;100.00;98571.03;5009293;28;20056;-67
2021/11/27 04:29:11;;;;;;;6.53;3.67;;;;;;;2.02;100.00;98565.88;5008090;28;20325;-75
2021/11/27 04:31:39;;;;;;;8.75;3.78;;;;;;;2.00;100.00;98559.81;5007712;28;20049;-75
2021/11/27 04:34:08;;;;;;;6.95;3.78;;;;;;;1.97;100.00;98575.69;5004124;28;20259;-76
2021/11/27 04:36:37;;;;;;;7.82;3.50;;;;;;;1.94;100.00;98573.19;5009987;28;20050;-75
2021/11/27 04:39:06;;;;;;;11.55;4.57;;;;;;;1.96;100.00;98573.97;5006376;28;20429;-75
2021/11/27 04:41:34;;;;;;;7.85;4.10;;;;;;;1.96;100.00;98573.09;5007457;28;20603;-75
2021/11/27 04:44:02;;;;;;;9.05;4.15;;;;;;;1.95;100.00;98576.66;5003633;28;20553;-76
2021/11/27 04:46:31;;;;;;;7.88;3.90;;;;;;;1.98;100.00;98587.94;5006860;28;20589;-75
2021/11/27 04:48:59;;;;;;;8.70;4.65;;;;;;;1.97;100.00;98588.00;5005528;28;20053;-75
2021/11/27 04:51:27;;;;;;;12.00;5.60;;;;;;;1.98;100.00;98592.34;5006536;28;20229;-74
2021/11/27 04:53:55;;;;;;;9.57;4.78;;;;;;;2.02;100.00;98601.84;5002147;28;20077;-74
2021/11/27 04:56:23;;;;;;;12.82;5.28;;;;;;;2.03;100.00;98601.81;5006763;28;20116;-74
2021/11/27 04:58:51;;;;;;;9.77;4.25;;;;;;;1.97;100.00;98609.03;5004388;28;20285;-75
2021/11/27 05:01:22;;;;;;;10.77;5.30;;;;;;;1.96;100.00;98612.56;5008079;28;20053;-75
2021/11/27 05:03:51;;;;;;;12.23;5.30;;;;;;;1.94;100.00;98614.38;5005150;28;21740;-75
2021/11/27 05:06:19;;;;;;;12.60;5.63;;;;;;;1.90;100.00;98620.66;5005104;28;20536;-75
2021/11/27 05:08:47;;;;;;;13.68;6.72;;;;;;;1.90;100.00;98618.03;5002106;28;20144;-74
2021/11/27 05:11:15;;;;;;;9.07;5.10;;;;;;;1.90;100.00;98615.41;5008254;28;20072;-69
2021/11/27 05:13:44;;;;;;;13.38;5.97;;;;;;;1.91;100.00;98618.00;5000902;28;20349;-68
2021/11/27 05:16:15;;;;;;;13.07;6.30;;;;;;;1.90;100.00;98621.53;5006743;28;20050;-69
2021/11/27 05:18:43;;;;;;;12.52;6.28;;;;;;;1.90;100.00;98623.28;5004608;28;20478;-69
2021/11/27 05:21:15;;;;;;;13.80;5.85;;;;;;;1.88;100.00;98633.88;5007058;28;20050;-69
2021/11/27 05:23:45;;;;;;;16.58;6.45;;;;;;;1.91;100.00;98627.63;5003465;28;20523;-68
2021/11/27 05:26:14;;;;;;;15.63;6.00;;;;;;;1.98;100.00;98627.41;5008600;28;20049;-69
2021/11/27 05:28:45;;;;;;;13.88;6.13;;;;;;;1.96;100.00;98629.22;4998909;28;20100;-69
2021/11/27 05:31:17;;;;;;;14.63;6.72;;;;;;;1.93;100.00;98634.56;5007244;28;20244;-69
2021/11/27 05:34:09;;;;;;;12.80;6.30;;;;;;;1.90;100.00;98639.94;5006101;28;20097;-69
2021/11/27 05:36:40;;;;;;;18.17;7.75;;;;;;;1.89;100.00;98637.34;5002992;28;20240;-69
2021/11/27 05:39:09;;;;;;;13.75;6.70;;;;;;;1.89;100.00;98655.75;5000345;28;20049;-69
2021/11/27 05:41:39;;;;;;;15.55;7.07;;;;;;;1.90;100.00;98660.97;5007093;28;20066;-67
2021/11/27 05:44:09;;;;;;;14.73;7.00;;;;;;;1.87;100.00;98663.69;5002471;28;20103;-67
2021/11/27 05:46:42;;;;;;;15.50;7.47;;;;;;;1.88;100.00;98667.22;5006024;28;20049;-74
2021/11/27 05:49:10;;;;;;;13.77;6.80;;;;;;;1.89;100.00;98669.78;5000132;28;20069;-74
2021/11/27 05:51:39;;;;;;;15.88;8.20;;;;;;;1.89;100.00;98672.41;5007139;28;20506;-73
2021/11/27 05:54:17;;;;;;;18.52;8.05;;;;;;;1.89;100.00;98679.44;5001989;28;20056;-73
2021/11/27 05:56:46;;;;;;;18.55;8.55;;;;;;;1.91;100.00;98685.50;5007100;28;20498;-74
2021/11/27 05:59:14;;;;;;;19.35;9.07;;;;;;;1.93;100.00;98696.84;4998036;28;20714;-74
2021/11/27 06:01:43;;;;;;;16.92;8.73;;;;;;;1.90;100.00;98695.16;5006867;28;20501;-74
2021/11/27 06:04:12;;;;;;;18.50;8.73;;;;;;;1.86;100.00;98689.13;5006325;28;20058;-74
2021/11/27 06:06:41;;;;;;;18.08;9.82;;;;;;;1.88;100.00;98696.13;5005166;28;20053;-74
2021/11/27 06:09:09;;;;;;;18.48;8.82;;;;;;;1.85;100.00;98707.59;5005981;28;20145;-75
2021/11/27 06:11:37;;;;;;;17.73;8.65;;;;;;;1.86;100.00;98711.97;5002648;28;20061;-75
2021/11/27 06:14:16;;;;;;;21.00;10.25;;;;;;;1.83;100.00;98710.28;5007966;28;20046;-73
2021/11/27 06:16:45;;;;;;;18.60;9.20;;;;;;;1.85;100.00;98708.44;5002400;28;20064;-73
2021/11/27 06:19:14;;;;;;;18.73;9.02;;;;;;;1.86;100.00;98714.59;5001164;28;20054;-72
2021/11/27 06:21:44;;;;;;;17.15;8.80;;;;;;;1.94;100.00;98722.22;5008323;28;20057;-74
2021/11/27 06:24:18;;;;;;;17.77;9.60;;;;;;;1.98;100.00;98723.88;5002532;28;20546;-74
2021/11/27 06:26:46;;;;;;;20.70;9.63;;;;;;;1.96;100.00;98720.41;5007270;28;20049;-73
2021/11/27 06:29:14;;;;;;;22.88;10.20;;;;;;;1.97;100.00;98730.03;5006485;28;20095;-74
2021/11/27 06:31:42;;;;;;;21.95;9.50;;;;;;;1.99;100.00;98736.09;5000087;28;20127;-74
2021/11/27 06:34:10;;;;;;;18.50;10.68;;;;;;;1.96;100.00;98742.34;5007205;28;20053;-74
2021/11/27 06:36:38;;;;;;;18.33;9.98;;;;;;;1.97;100.00;98745.81;5002156;28;20053;-74
2021/11/27 06:39:10;;;;;;;18.75;11.07;;;;;;;1.97;100.00;98753.72;5005607;28;20595;-73
2021/11/27 06:41:38;;;;;;;25.02;11.50;;;;;;;1.98;100.00;98755.44;5003624;28;20083;-73
2021/11/27 06:44:07;;;;;;;24.80;11.95;;;;;;;1.98;100.00;98755.44;5001822;28;20096;-73
2021/11/27 06:46:35;;;;;;;29.38;13.20;;;;;;;2.00;100.00;98764.16;5001127;28;20053;-73
2021/11/27 06:49:03;;;;;;;34.65;14.43;;;;;;;1.99;100.00;98770.31;5005934;28;20148;-73
2021/11/27 06:51:31;;;;;;;28.05;13.07;;;;;;;1.99;100.00;98767.66;5004074;28;20390;-74
2021/11/27 06:53:59;;;;;;;31.67;13.57;;;;;;;1.99;100.00;98784.34;5000086;28;20052;-73
2021/11/27 06:56:28;;;;;;;33.28;16.63;;;;;;;1.98;100.00;98792.28;5004669;28;20045;-73
2021/11/27 06:58:56;;;;;;;29.38;14.30;;;;;;;1.98;100.00;98787.88;5002291;28;20132;-73
2021/11/27 07:01:28;;;;;;;31.65;13.77;;;;;;;2.02;100.00;98801.78;5007476;28;20085;-74
2021/11/27 07:03:59;;;;;;;28.10;13.32;;;;;;;2.02;100.00;98796.53;5000816;28;20052;-74
2021/11/27 07:06:31;;;;;;;37.30;15.05;;;;;;;2.00;100.00;98799.19;5005471;28;20060;-74
2021/11/27 07:09:03;;;;;;;35.88;15.65;;;;;;;1.99;100.00;98801.88;5002046;28;20045;-74
2021/11/27 07:11:32;;;;;;;29.63;13.68;;;;;;;2.02;100.00;98804.41;5006957;28;20046;-73
2021/11/27 07:14:00;;;;;;;32.75;14.32;;;;;;;1.99;100.00;98804.50;5007563;28;20412;-73
2021/11/27 07:16:28;;;;;;;32.35;14.70;;;;;;;1.97;100.00;98808.94;5006331;28;20409;-73
2021/11/27 07:18:56;;;;;;;33.67;14.88;;;;;;;1.95;100.00;98806.38;5004014;28;20841;-74
2021/11/27 07:21:24;;;;;;;37.30;17.17;;;;;;;1.95;100.00;98813.41;5008751;28;20750;-74
2021/11/27 07:23:52;;;;;;;36.85;16.55;;;;;;;1.93;100.00;98815.22;5004286;28;20046;-72
2021/11/27 07:26:21;;;;;;;36.08;14.55;;;;;;;1.95;100.00;98822.16;5010462;28;20073;-73
2021/11/27 07:28:51;;;;;;;36.17;15.90;;;;;;;2.00;100.00;98820.25;5002732;28;20068;-73
2021/11/27 07:31:19;;;;;;;42.50;16.10;;;;;;;1.99;100.00;98821.16;5008130;28;20046;-73
2021/11/27 07:33:48;;;;;;;34.13;14.90;;;;;;;1.99;100.00;98828.19;5007129;28;20145;-74
2021/11/27 07:36:15;;;;;;;36.33;17.33;;;;;;;1.99;100.00;98834.31;5012614;28;20147;-74
2021/11/27 07:38:43;;;;;;;41.55;17.08;;;;;;;1.99;100.00;98834.31;5007377;28;20433;-73
2021/11/27 07:41:12;;;;;;;36.45;16.40;;;;;;;1.99;100.00;98842.22;5003649;28;20132;-73
2021/11/27 07:43:40;;;;;;;36.58;14.68;;;;;;;2.04;100.00;98839.44;5007156;28;20049;-67
2021/11/27 07:46:12;;;;;;;39.25;16.65;;;;;;;2.09;100.00;98849.81;5006249;28;20058;-67
2021/11/27 07:48:40;;;;;;;35.28;15.65;;;;;;;2.13;100.00;98857.59;5009195;28;20050;-73
2021/11/27 07:51:08;;;;;;;38.85;17.05;;;;;;;2.15;100.00;98865.44;5007642;28;20087;-74
2021/11/27 07:53:37;;;;;;;47.30;19.58;;;;;;;2.14;100.00;98871.59;5009546;28;20084;-73
2021/11/27 07:56:06;;;;;;;38.58;17.35;;;;;;;2.15;100.00;98876.81;5005753;28;20057;-73
2021/11/27 07:58:34;;;;;;;40.25;17.92;;;;;;;2.15;100.00;98875.97;5007450;28;20058;-73
2021/11/27 08:01:02;;;;;;;38.67;17.45;;;;;;;2.13;100.00;98893.53;5002883;28;20055;-67
2021/11/27 08:03:32;;;;;;;37.17;19.48;;;;;;;2.12;100.00;98895.31;5003418;28;21403;-74
2021/11/27 08:06:01;;;;;;;35.90;17.88;;;;;;;2.12;100.00;98892.69;5010188;28;20057;-73
2021/11/27 08:08:29;;;;;;;48.95;19.42;;;;;;;2.12;100.00;98899.72;5002682;28;20103;-74
2021/11/27 08:10:56;;;;;;;38.70;16.67;;;;;;;2.14;100.00;98905.81;5008036;28;20053;-74
2021/11/27 08:13:25;;;;;;;44.22;18.85;;;;;;;2.16;100.00;98918.03;5004074;28;20546;-69
2021/11/27 08:15:53;;;;;;;38.50;16.95;;;;;;;2.19;100.00;98917.91;5008531;28;20058;-75
2021/11/27 08:18:21;;;;;;;43.22;19.33;;;;;;;2.20;100.00;98918.81;5002311;28;20572;-75
2021/11/27 08:20:51;;;;;;;41.30;18.05;;;;;;;2.22;100.00;98925.72;5007616;28;20136;-75
2021/11/27 08:23:38;;;;;;;39.88;18.23;;;;;;;2.23;100.00;98922.22;5006475;28;20076;-68
2021/11/27 08:26:07;;;;;;;38.28;15.48;;;;;;;2.29;100.00;98930.84;5009830;28;20765;-74
2021/11/27 08:28:36;;;;;;;35.63;16.45;;;;;;;2.32;100.00;98925.50;5003341;28;20103;-74
2021/11/27 08:31:05;;;;;;;37.60;16.48;;;;;;;2.32;100.00;98930.75;5008963;28;20104;-74
2021/11/27 08:33:34;;;;;;;37.47;17.05;;;;;;;2.37;100.00;98934.13;5004841;28;21261;-74
2021/11/27 08:36:04;;;;;;;31.65;16.33;;;;;;;2.40;100.00;98934.00;5008560;28;20387;-74
2021/11/27 08:38:32;;;;;;;36.80;17.08;;;;;;;2.42;100.00;98940.97;5004691;28;20065;-74
2021/11/27 08:41:00;;;;;;;40.92;16.58;;;;;;;2.42;100.00;98934.84;5004365;28;20536;-74
2021/11/27 08:43:29;;;;;;;39.95;17.73;;;;;;;2.42;100.00;98940.97;5007136;28;20109;-74
2021/11/27 08:45:57;;;;;;;38.10;17.33;;;;;;;2.44;100.00;98951.44;5007635;28;20132;-73
2021/11/27 08:48:25;;;;;;;44.88;18.08;;;;;;;2.39;100.00;98946.31;5005008;28;20552;-74
2021/11/27 08:50:53;;;;;;;42.17;18.33;;;;;;;2.45;100.00;98952.31;5007298;28;20100;-75
2021/11/27 08:53:23;;;;;;;38.08;17.85;;;;;;;2.46;100.00;98959.31;5002774;28;20046;-73
2021/11/27 08:55:51;;;;;;;34.65;16.95;;;;;;;2.46;100.00;98962.78;5003218;28;20087;-74
2021/11/27 08:58:19;;;;;;;38.55;17.70;;;;;;;2.48;100.00;98965.38;5006376;28;20565;-75
2021/11/27 09:00:47;;;;;;;39.80;18.63;;;;;;;2.49;100.00;98969.75;5005918;28;20057;-75
2021/11/27 09:03:15;;;;;;;41.58;18.80;;;;;;;2.49;100.00;98967.97;5008549;28;20042;-75
2021/11/27 09:05:44;;;;;;;44.53;18.95;;;;;;;2.53;100.00;98966.97;5003311;28;20088;-76
2021/11/27 09:08:12;;;;;;;41.65;17.98;;;;;;;2.54;100.00;98968.72;5007404;28;20438;-75
2021/11/27 09:10:42;;;;;;;35.53;16.92;;;;;;;2.57;100.00;98970.38;5007180;28;20099;-76
2021/11/27 09:13:10;;;;;;;39.70;17.90;;;;;;;2.58;100.00;98965.06;5005491;28;20049;-75
2021/11/27 09:15:38;;;;;;;40.65;18.85;;;;;;;2.60;100.00;98959.75;5002085;28;20049;-76
2021/11/27 09:18:09;;;;;;;39.15;17.23;;;;;;;2.63;100.00;98974.63;5009779;28;20045;-76
2021/11/27 09:20:38;;;;;;;45.28;18.50;;;;;;;2.58;100.00;98975.59;5006290;28;20045;-75
2021/11/27 09:23:07;;;;;;;45.38;18.20;;;;;;;2.58;100.00;98982.63;5003455;28;20077;-69
2021/11/27 09:25:36;;;;;;;44.03;19.13;;;;;;;2.64;100.00;98987.75;5008635;28;20053;-70
2021/11/27 09:28:06;;;;;;;41.00;17.92;;;;;;;2.62;100.00;98986.91;5004348;28;20045;-69
2021/11/27 09:30:34;;;;;;;41.45;18.27;;;;;;;2.67;100.00;98986.78;5001181;28;20135;-69
2021/11/27 09:33:02;;;;;;;38.50;18.05;;;;;;;2.68;100.00;98988.50;5007974;28;20124;-68
2021/11/27 09:35:32;;;;;;;39.63;16.95;;;;;;;2.70;100.00;98994.59;5007229;28;20997;-67
2021/11/27 09:38:00;;;;;;;38.92;16.55;;;;;;;2.72;100.00;99001.53;5004021;28;20123;-67
2021/11/27 09:40:33;;;;;;;32.55;17.25;;;;;;;2.73;100.00;99003.25;5003246;28;20057;-68
2021/11/27 09:43:01;;;;;;;43.15;16.80;;;;;;;2.76;100.00;99003.19;5006929;28;20561;-68
2021/11/27 09:45:31;;;;;;;37.85;16.27;;;;;;;2.77;100.00;99004.03;5007048;28;20408;-74
2021/11/27 09:48:01;;;;;;;39.03;17.95;;;;;;;2.80;100.00;99010.06;5001239;28;20231;-74
2021/11/27 09:50:29;;;;;;;39.67;17.85;;;;;;;2.73;100.00;99005.03;4998224;28;20651;-74
2021/11/27 09:52:57;;;;;;;34.08;17.90;;;;;;;2.74;100.00;99006.75;5004628;28;20053;-73
2021/11/27 09:55:25;;;;;;;41.38;16.52;;;;;;;2.72;100.00;99006.78;5002363;28;20049;-72
2021/11/27 09:57:53;;;;;;;34.58;16.88;;;;;;;2.74;100.00;99014.66;5006261;28;20053;-72
2021/11/27 10:00:21;;;;;;;45.25;19.30;;;;;;;2.71;100.00;99012.13;5004761;28;20073;-73
2021/11/27 10:02:56;;;;;;;37.00;17.10;;;;;;;2.73;100.00;99016.44;5004961;28;20088;-72
2021/11/27 10:05:24;;;;;;;43.38;17.27;;;;;;;2.75;100.00;99022.50;5007353;28;20236;-72
2021/11/27 10:07:53;;;;;;;37.20;17.60;;;;;;;2.75;100.00;99016.38;5001863;28;20136;-73
2021/11/27 10:10:21;;;;;;;39.33;18.70;;;;;;;2.79;100.00;99018.00;5001326;28;20053;-72
2021/11/27 10:12:49;;;;;;;47.33;18.95;;;;;;;2.78;100.00;99014.53;5008098;28;20061;-73
2021/11/27 10:15:17;;;;;;;35.65;16.50;;;;;;;2.77;100.00;99004.03;5006404;28;20412;-73
2021/11/27 10:17:45;;;;;;;33.95;16.15;;;;;;;2.82;100.00;98996.84;5002031;28;20053;-73
2021/11/27 10:20:17;;;;;;;32.65;16.70;;;;;;;2.89;100.00;98997.53;5006463;28;20056;-72
2021/11/27 10:22:48;;;;;;;44.83;17.17;;;;;;;2.90;100.00;98994.84;5004827;28;20385;-72
2021/11/27 10:25:26;;;;;;;36.95;16.02;;;;;;;2.99;100.00;98989.28;5007865;28;20061;-72
2021/11/27 10:28:05;;;;;;;39.88;17.20;;;;;;;3.02;100.00;98998.91;5001674;28;20045;-72
2021/11/27 10:30:54;;;;;;;34.35;16.23;;;;;;;3.11;100.00;99003.03;5008153;28;20499;-72
2021/11/27 10:33:24;;;;;;;39.58;15.57;;;;;;;3.17;100.00;99002.84;4999116;28;20422;-72
2021/11/27 10:36:00;;;;;;;32.90;14.27;;;;;;;3.29;100.00;98991.91;5008759;28;20061;-72
2021/11/27 10:38:44;;;;;;;36.20;13.55;;;;;;;3.43;100.00;98995.88;5003941;28;20453;-73
2021/11/27 10:41:13;;;;;;;34.40;12.10;;;;;;;3.61;100.00;98997.03;5005477;28;20308;-72
2021/11/27 10:43:58;;;;;;;26.35;9.45;;;;;;;3.84;100.00;98983.09;5001306;28;20099;-72
2021/11/27 10:46:28;;;;;;;29.77;10.98;;;;;;;3.89;100.00;98992.56;5007745;28;20096;-71
2021/11/27 10:48:56;;;;;;;31.38;9.75;;;;;;;3.89;100.00;98987.28;5001801;28;20453;-71
2021/11/27 10:51:25;;;;;;;19.40;8.63;;;;;;;3.96;100.00;98985.28;5006776;28;20131;-71
2021/11/27 10:53:55;;;;;;;20.58;7.03;;;;;;;4.01;100.00;98996.56;5004147;28;20131;-71
2021/11/27 10:56:40;;;;;;;23.67;8.25;;;;;;;3.99;100.00;98993.13;5002858;28;20095;-71
2021/11/27 10:59:10;;;;;;;24.45;8.45;;;;;;;3.89;100.00;98999.63;5004479;28;20099;-71
2021/11/27 11:02:00;;;;;;;17.45;7.28;;;;;;;3.83;100.00;99003.34;5000642;28;20168;-71
2021/11/27 11:04:29;;;;;;;22.02;6.82;;;;;;;3.76;100.00;99004.44;5003376;28;20059;-68
2021/11/27 11:07:16;;;;;;;15.80;6.43;;;;;;;3.72;100.00;98997.56;5002676;28;20143;-67
2021/11/27 11:10:06;;;;;;;22.70;6.60;;;;;;;3.63;100.00;99006.63;5003811;28;20103;-68
2021/11/27 11:12:37;;;;;;;18.05;5.53;;;;;;;3.62;100.00;99004.91;5031676;28;20053;-68
2021/11/27 11:15:14;;;;;;;15.93;4.72;;;;;;;3.59;100.00;99009.41;5005751;28;20050;-68
2021/11/27 11:17:43;;;;;;;11.70;4.97;;;;;;;3.52;100.00;99000.84;5001230;28;20050;-68
2021/11/27 11:20:16;;;;;;;12.27;4.57;;;;;;;3.40;100.00;99003.88;5009234;28;20064;-67
2021/11/27 11:23:04;;;;;;;12.10;4.10;;;;;;;3.32;100.00;99004.09;5005341;28;20093;-66
2021/11/27 11:25:34;;;;;;;13.60;3.50;;;;;;;3.14;100.00;99005.56;5007339;28;20041;-66
2021/11/27 11:28:13;;;;;;;11.57;3.63;;;;;;;2.99;100.00;99004.25;5004634;28;20734;-67
2021/11/27 11:30:44;;;;;;;11.30;3.63;;;;;;;2.98;100.00;99002.56;5002857;28;20049;-67
2021/11/27 11:33:14;;;;;;;13.13;3.05;;;;;;;2.81;100.00;98997.78;5003302;28;20049;-66
2021/11/27 11:35:43;;;;;;;8.13;3.00;;;;;;;2.77;100.00;99001.41;5002849;28;20100;-66
2021/11/27 11:38:15;;;;;;;9.50;3.47;;;;;;;2.72;100.00;99003.31;5004353;28;20086;-66
2021/11/27 11:40:45;;;;;;;10.48;3.10;;;;;;;2.61;100.00;99001.84;5001790;28;20498;-70